createdAt,value
2022-11-13T00:00:05.736Z,30.45
2022-11-13T00:02:51.826Z,32.00
2022-11-13T00:05:37.662Z,35.10
2022-11-13T00:08:23.413Z,29.87
2022-11-13T00:11:12.024Z,33.97
2022-11-13T00:13:58.411Z,40.30
2022-11-13T00:16:44.445Z,40.25
2022-11-13T00:19:30.020Z,34.38
2022-11-13T00:22:15.845Z,34.47
2022-11-13T00:25:01.477Z,31.85
2022-11-13T00:27:47.359Z,32.95
2022-11-13T00:30:33.372Z,37.65
2022-11-13T00:33:31.978Z,35.55
2022-11-13T00:39:12.375Z,31.20
2022-11-13T00:41:58.110Z,30.98
2022-11-13T00:44:44.732Z,28.25
2022-11-13T00:47:30.598Z,28.30
2022-11-13T00:50:16.455Z,34.10
2022-11-13T00:53:02.146Z,40.60
2022-11-13T00:55:47.746Z,41.83
2022-11-13T00:58:33.518Z,46.50
2022-11-13T01:01:20.597Z,46.30
2022-11-13T01:04:06.591Z,39.95
2022-11-13T01:06:52.365Z,39.92
2022-11-13T01:09:38.067Z,38.92
2022-11-13T01:12:23.941Z,30.65
2022-11-13T01:15:09.774Z,31.15
2022-11-13T01:17:55.796Z,30.73
2022-11-13T01:20:41.722Z,31.55
2022-11-13T01:23:27.532Z,26.08
2022-11-13T01:26:16.607Z,23.52
2022-11-13T01:29:02.091Z,25.23
2022-11-13T01:31:48.001Z,24.37
2022-11-13T01:34:33.875Z,25.98
2022-11-13T01:37:19.706Z,27.25
2022-11-13T01:40:05.665Z,28.62
2022-11-13T01:42:51.608Z,27.67
2022-11-13T01:45:58.674Z,28.42
2022-11-13T01:48:55.392Z,27.17
2022-11-13T01:51:50.146Z,26.55
2022-11-13T01:54:39.631Z,28.87
2022-11-13T01:57:25.645Z,27.83
2022-11-13T02:00:12.795Z,29.08
2022-11-13T02:02:58.547Z,28.65
2022-11-13T02:05:44.325Z,29.65
2022-11-13T02:08:30.392Z,34.03
2022-11-13T02:11:16.962Z,34.40
2022-11-13T02:14:03.175Z,33.78
2022-11-13T02:16:51.505Z,36.05
2022-11-13T02:19:40.892Z,33.35
2022-11-13T02:22:48.835Z,32.45
2022-11-13T02:25:34.788Z,35.75
2022-11-13T02:28:20.490Z,31.90
2022-11-13T02:31:08.892Z,35.70
2022-11-13T02:33:54.772Z,33.40
2022-11-13T02:36:40.349Z,34.50
2022-11-13T02:39:26.287Z,34.88
2022-11-13T02:42:12.009Z,36.17
2022-11-13T02:44:57.609Z,32.40
2022-11-13T02:47:43.746Z,31.05
2022-11-13T02:50:29.756Z,30.48
2022-11-13T02:53:15.368Z,29.55
2022-11-13T02:56:01.104Z,34.28
2022-11-13T02:58:46.916Z,34.05
2022-11-13T03:01:32.528Z,30.85
2022-11-13T03:04:18.779Z,30.80
2022-11-13T03:07:04.845Z,32.35
2022-11-13T03:09:50.810Z,30.60
2022-11-13T03:12:36.813Z,30.73
2022-11-13T03:15:23.008Z,30.95
2022-11-13T03:18:08.976Z,27.55
2022-11-13T03:20:54.679Z,29.08
2022-11-13T03:23:41.442Z,28.42
2022-11-13T03:26:29.862Z,27.08
2022-11-13T03:29:15.707Z,23.55
2022-11-13T03:32:03.298Z,24.60
2022-11-13T03:34:49.236Z,22.27
2022-11-13T03:37:34.946Z,23.30
2022-11-13T03:40:20.515Z,23.27
2022-11-13T03:43:06.239Z,23.35
2022-11-13T03:45:52.215Z,27.70
2022-11-13T03:48:37.945Z,22.83
2022-11-13T03:51:23.660Z,22.20
2022-11-13T03:54:09.325Z,24.63
2022-11-13T03:56:54.970Z,21.75
2022-11-13T03:59:40.899Z,23.27
2022-11-13T04:02:26.564Z,23.98
2022-11-13T04:05:12.703Z,23.52
2022-11-13T04:07:58.393Z,23.23
2022-11-13T04:10:44.852Z,23.42
2022-11-13T04:13:30.598Z,25.75
2022-11-13T04:16:16.338Z,24.87
2022-11-13T04:19:02.379Z,25.35
2022-11-13T04:21:48.136Z,26.02
2022-11-13T04:24:33.760Z,24.42
2022-11-13T04:27:19.387Z,25.75
2022-11-13T04:30:05.688Z,26.30
2022-11-13T04:32:51.306Z,27.55
2022-11-13T04:35:37.025Z,26.75
2022-11-13T04:38:22.606Z,24.75
2022-11-13T04:41:27.336Z,25.75
2022-11-13T04:44:13.356Z,25.08
2022-11-13T04:46:59.047Z,24.48
2022-11-13T04:49:44.758Z,23.62
2022-11-13T04:52:30.600Z,28.33
2022-11-13T04:55:16.232Z,31.65
2022-11-13T04:58:02.011Z,27.25
2022-11-13T05:00:47.643Z,28.67
2022-11-13T05:03:33.398Z,26.65
2022-11-13T05:06:19.404Z,27.70
2022-11-13T05:09:05.437Z,28.50
2022-11-13T05:11:51.300Z,27.58
2022-11-13T05:14:40.669Z,27.48
2022-11-13T05:17:26.257Z,28.25
2022-11-13T05:20:12.173Z,28.92
2022-11-13T05:22:57.768Z,27.17
2022-11-13T05:25:44.521Z,26.50
2022-11-13T05:28:30.428Z,29.02
2022-11-13T05:31:16.719Z,25.88
2022-11-13T05:34:06.215Z,27.92
2022-11-13T05:36:52.316Z,31.20
2022-11-13T05:39:37.974Z,34.55
2022-11-13T05:42:23.555Z,33.00
2022-11-13T05:45:09.820Z,27.00
2022-11-13T05:47:55.498Z,26.15
2022-11-13T05:50:41.265Z,25.83
2022-11-13T05:53:26.912Z,28.87
2022-11-13T05:56:20.672Z,30.12
2022-11-13T05:59:06.632Z,27.10
2022-11-13T06:01:52.481Z,26.73
2022-11-13T06:04:38.663Z,24.87
2022-11-13T06:07:24.661Z,26.77
2022-11-13T06:10:10.705Z,25.15
2022-11-13T06:12:56.392Z,24.23
2022-11-13T06:15:42.214Z,26.60
2022-11-13T06:18:28.647Z,24.23
2022-11-13T06:21:21.003Z,23.67
2022-11-13T06:24:07.396Z,22.52
2022-11-13T06:26:53.793Z,29.30
2022-11-13T06:29:39.426Z,25.98
2022-11-13T06:32:25.157Z,26.37
2022-11-13T06:35:11.077Z,27.23
2022-11-13T06:37:56.824Z,26.35
2022-11-13T06:40:42.815Z,25.40
2022-11-13T06:43:28.917Z,23.83
2022-11-13T06:46:19.341Z,25.45
2022-11-13T06:49:04.946Z,21.55
2022-11-13T06:51:50.670Z,19.90
2022-11-13T06:54:36.378Z,22.00
2022-11-13T06:57:22.663Z,19.73
2022-11-13T07:00:09.393Z,20.10
2022-11-13T07:02:55.086Z,21.80
2022-11-13T07:05:41.718Z,21.27
2022-11-13T07:08:27.735Z,22.10
2022-11-13T07:11:19.370Z,22.20
2022-11-13T07:14:05.120Z,20.92
2022-11-13T07:17:08.512Z,21.12
2022-11-13T07:19:55.650Z,20.15
2022-11-13T07:22:41.237Z,19.00
2022-11-13T07:25:27.671Z,19.50
2022-11-13T07:28:13.449Z,19.58
2022-11-13T07:30:59.713Z,18.67
2022-11-13T07:33:48.096Z,19.30
2022-11-13T07:36:33.597Z,18.75
2022-11-13T07:39:19.242Z,17.42
2022-11-13T07:42:05.063Z,17.52
2022-11-13T07:44:55.068Z,18.33
2022-11-13T07:47:41.607Z,19.50
2022-11-13T07:50:33.894Z,18.83
2022-11-13T07:53:20.527Z,38.72
2022-11-13T07:56:07.134Z,62.25
2022-11-13T07:58:52.936Z,44.92
2022-11-13T08:01:38.722Z,22.80
2022-11-13T08:04:25.832Z,57.13
2022-11-13T08:07:13.178Z,33.50
2022-11-13T08:09:58.979Z,29.27
2022-11-13T08:12:45.318Z,31.95
2022-11-13T08:15:31.753Z,23.87
2022-11-13T08:18:17.615Z,21.80
2022-11-13T08:21:04.615Z,19.83
2022-11-13T08:23:50.518Z,19.08
2022-11-13T08:26:39.051Z,19.23
2022-11-13T08:29:24.974Z,19.08
2022-11-13T08:32:10.717Z,18.67
2022-11-13T08:34:56.549Z,20.55
2022-11-13T08:37:42.399Z,21.15
2022-11-13T08:40:28.667Z,21.17
2022-11-13T08:43:14.703Z,34.75
2022-11-13T08:46:00.336Z,52.50
2022-11-13T08:48:46.086Z,22.52
2022-11-13T08:51:31.765Z,22.08
2022-11-13T08:54:17.784Z,21.77
2022-11-13T08:57:06.090Z,19.05
2022-11-13T08:59:51.966Z,19.35
2022-11-13T09:02:37.663Z,19.05
2022-11-13T09:05:24.224Z,19.08
2022-11-13T09:08:10.722Z,19.67
2022-11-13T09:10:56.639Z,20.98
2022-11-13T09:13:45.086Z,19.83
2022-11-13T09:16:33.640Z,19.90
2022-11-13T09:19:19.505Z,21.17
2022-11-13T09:22:05.157Z,20.83
2022-11-13T09:24:50.949Z,21.73
2022-11-13T09:27:36.805Z,21.87
2022-11-13T09:30:23.322Z,21.62
2022-11-13T09:33:10.301Z,22.17
2022-11-13T09:35:55.977Z,20.90
2022-11-13T09:38:42.540Z,20.88
2022-11-13T09:41:30.599Z,19.42
2022-11-13T09:44:20.852Z,22.05
2022-11-13T09:47:28.401Z,24.25
2022-11-13T09:50:20.744Z,22.65
2022-11-13T09:53:06.538Z,22.25
2022-11-13T09:56:06.900Z,22.08
2022-11-13T09:59:25.083Z,23.70
2022-11-13T10:02:21.248Z,22.50
2022-11-13T10:05:13.498Z,23.67
2022-11-13T10:08:21.873Z,25.33
2022-11-13T10:11:28.832Z,28.38
2022-11-13T10:14:42.202Z,26.77
2022-11-13T10:17:49.094Z,29.58
2022-11-13T10:20:48.643Z,27.90
2022-11-13T10:23:37.353Z,28.40
2022-11-13T10:26:24.917Z,26.42
2022-11-13T10:29:18.160Z,28.05
2022-11-13T10:32:27.748Z,26.23
2022-11-13T10:35:45.607Z,27.40
2022-11-13T10:38:42.869Z,29.33
2022-11-13T10:41:29.185Z,28.17
2022-11-13T10:44:21.046Z,25.95
2022-11-13T10:47:26.423Z,27.55
2022-11-13T10:50:28.091Z,26.40
2022-11-13T10:53:16.854Z,27.42
2022-11-13T10:56:12.965Z,25.85
2022-11-13T10:59:26.182Z,26.95
2022-11-13T11:02:11.875Z,24.85
2022-11-13T11:05:03.427Z,24.90
2022-11-13T11:07:49.656Z,24.10
2022-11-13T11:10:36.724Z,24.37
2022-11-13T11:13:23.903Z,24.10
2022-11-13T11:16:13.797Z,21.90
2022-11-13T11:19:02.174Z,22.05
2022-11-13T11:21:51.744Z,22.10
2022-11-13T11:24:51.502Z,22.85
2022-11-13T11:27:47.784Z,23.02
2022-11-13T11:30:40.635Z,21.48
2022-11-13T11:33:37.831Z,23.35
2022-11-13T11:36:36.939Z,23.00
2022-11-13T11:39:40.142Z,21.80
2022-11-13T11:42:47.355Z,22.37
2022-11-13T11:45:37.526Z,22.60
2022-11-13T11:48:27.291Z,22.60
2022-11-13T11:51:35.986Z,20.42
2022-11-13T11:54:40.315Z,21.35
2022-11-13T11:57:47.682Z,21.48
2022-11-13T12:00:34.686Z,19.27
2022-11-13T12:03:44.070Z,23.17
2022-11-13T12:06:38.895Z,22.02
2022-11-13T12:09:30.669Z,22.52
2022-11-13T12:12:37.822Z,21.05
2022-11-13T12:15:37.787Z,22.00
2022-11-13T12:18:48.603Z,19.87
2022-11-13T12:22:04.027Z,22.00
2022-11-13T12:25:09.512Z,19.92
2022-11-13T12:28:16.890Z,41.88
2022-11-13T12:31:39.106Z,25.02
2022-11-13T12:34:30.006Z,21.45
2022-11-13T12:37:52.258Z,22.25
2022-11-13T12:41:20.689Z,18.62
2022-11-13T12:44:27.338Z,17.70
2022-11-13T12:47:13.620Z,17.17
2022-11-13T12:50:05.052Z,17.65
2022-11-13T12:53:06.342Z,16.55
2022-11-13T12:56:00.952Z,17.37
2022-11-13T12:59:23.764Z,16.15
2022-11-13T13:02:09.197Z,18.20
2022-11-13T13:05:07.202Z,17.23
2022-11-13T13:08:05.491Z,16.05
2022-11-13T13:10:56.139Z,16.83
2022-11-13T13:13:47.300Z,17.30
2022-11-13T13:16:33.212Z,18.37
2022-11-13T13:19:29.395Z,17.50
2022-11-13T13:22:32.816Z,16.95
2022-11-13T13:25:33.617Z,17.08
2022-11-13T13:28:24.310Z,17.70
2022-11-13T13:31:12.933Z,18.30
2022-11-13T13:34:23.041Z,16.95
2022-11-13T13:37:23.750Z,17.45
2022-11-13T13:40:15.319Z,16.55
2022-11-13T13:43:42.924Z,18.73
2022-11-13T13:46:31.238Z,18.75
2022-11-13T13:49:20.510Z,27.95
2022-11-13T13:52:06.545Z,21.83
2022-11-13T13:54:52.831Z,18.77
2022-11-13T13:57:41.284Z,17.37
2022-11-13T14:00:27.549Z,17.35
2022-11-13T14:03:19.863Z,18.48
2022-11-13T14:06:24.516Z,18.87
2022-11-13T14:09:15.615Z,21.47
2022-11-13T14:12:09.017Z,21.58
2022-11-13T14:14:55.674Z,21.17
2022-11-13T14:17:41.470Z,21.48
2022-11-13T14:20:27.288Z,21.00
2022-11-13T14:23:15.855Z,21.35
2022-11-13T14:26:03.000Z,21.60
2022-11-13T14:28:56.008Z,23.45
2022-11-13T14:31:41.921Z,22.20
2022-11-13T14:34:27.555Z,22.58
2022-11-13T14:37:23.057Z,21.95
2022-11-13T14:40:33.979Z,21.75
2022-11-13T14:43:29.833Z,23.10
2022-11-13T14:46:36.852Z,21.40
2022-11-13T14:49:33.829Z,20.77
2022-11-13T14:52:28.286Z,20.62
2022-11-13T14:55:22.986Z,22.70
2022-11-13T14:58:13.645Z,21.52
2022-11-13T15:01:12.004Z,21.65
2022-11-13T15:03:58.484Z,21.83
2022-11-13T15:06:44.819Z,22.35
2022-11-13T15:09:31.227Z,21.05
2022-11-13T15:12:17.227Z,21.70
2022-11-13T15:15:03.228Z,21.85
2022-11-13T15:17:50.604Z,24.12
2022-11-13T15:20:36.741Z,22.77
2022-11-13T15:23:23.266Z,23.23
2022-11-13T15:26:11.464Z,24.17
2022-11-13T15:28:57.741Z,24.77
2022-11-13T15:31:45.575Z,23.73
2022-11-13T15:34:31.920Z,25.00
2022-11-13T15:37:18.330Z,23.85
2022-11-13T15:40:05.016Z,24.48
2022-11-13T15:42:50.976Z,23.62
2022-11-13T15:45:41.226Z,25.60
2022-11-13T15:48:29.773Z,27.92
2022-11-13T15:51:28.142Z,28.45
2022-11-13T15:54:25.636Z,29.87
2022-11-13T15:57:19.054Z,29.37
2022-11-13T16:00:16.747Z,27.27
2022-11-13T16:03:04.878Z,29.20
2022-11-13T16:05:53.526Z,27.27
2022-11-13T16:08:39.805Z,30.95
2022-11-13T16:11:25.853Z,29.77
2022-11-13T16:14:11.679Z,38.45
2022-11-13T16:16:57.378Z,58.15
2022-11-13T16:19:46.267Z,62.92
2022-11-13T16:22:32.892Z,59.92
2022-11-13T16:25:20.954Z,62.35
2022-11-13T16:28:18.109Z,37.83
2022-11-13T16:31:04.074Z,30.15
2022-11-13T16:33:50.424Z,28.60
2022-11-13T16:36:37.628Z,30.73
2022-11-13T16:39:24.132Z,29.02
2022-11-13T16:42:11.290Z,27.75
2022-11-13T16:44:58.083Z,28.73
2022-11-13T16:47:44.475Z,26.70
2022-11-13T16:50:32.468Z,29.37
2022-11-13T16:53:19.187Z,31.85
2022-11-13T16:56:32.653Z,36.55
2022-11-13T16:59:20.558Z,43.25
2022-11-13T17:02:17.867Z,38.40
2022-11-13T17:05:05.025Z,39.33
2022-11-13T17:07:57.409Z,37.55
2022-11-13T17:10:43.648Z,41.92
2022-11-13T17:13:30.834Z,39.95
2022-11-13T17:16:18.473Z,37.83
2022-11-13T17:19:04.546Z,34.33
2022-11-13T17:21:50.932Z,33.88
2022-11-13T17:24:39.989Z,32.03
2022-11-13T17:27:26.650Z,31.42
2022-11-13T17:30:13.801Z,34.10
2022-11-13T17:33:00.246Z,33.05
2022-11-13T17:35:54.123Z,31.55
2022-11-13T17:38:40.359Z,30.37
2022-11-13T17:41:26.683Z,29.52
2022-11-13T17:44:12.872Z,30.27
2022-11-13T17:46:59.910Z,30.77
2022-11-13T17:49:45.995Z,31.80
2022-11-13T17:52:32.498Z,32.88
2022-11-13T17:55:19.338Z,32.88
2022-11-13T17:58:05.568Z,31.00
2022-11-13T18:00:52.412Z,36.03
2022-11-13T18:03:39.155Z,35.25
2022-11-13T18:06:26.346Z,35.20
2022-11-13T18:09:13.798Z,32.92
2022-11-13T18:12:00.357Z,38.45
2022-11-13T18:14:52.272Z,40.03
2022-11-13T18:17:39.180Z,42.47
2022-11-13T18:20:25.399Z,42.75
2022-11-13T18:23:11.727Z,41.28
2022-11-13T18:25:58.072Z,40.50
2022-11-13T18:28:45.300Z,42.92
2022-11-13T18:31:31.997Z,81.35
2022-11-13T18:34:18.524Z,48.95
2022-11-13T18:37:05.060Z,46.13
2022-11-13T18:39:51.387Z,40.55
2022-11-13T18:42:38.060Z,33.80
2022-11-13T18:45:24.530Z,39.47
2022-11-13T18:48:11.459Z,45.30
2022-11-13T18:50:59.524Z,40.65
2022-11-13T18:53:48.661Z,37.67
2022-11-13T18:56:36.243Z,46.50
2022-11-13T18:59:22.234Z,58.70
2022-11-13T19:02:10.517Z,56.42
2022-11-13T19:04:57.071Z,53.25
2022-11-13T19:07:43.918Z,53.60
2022-11-13T19:10:30.442Z,50.33
2022-11-13T19:13:17.076Z,44.35
2022-11-13T19:16:15.893Z,37.42
2022-11-13T19:19:08.770Z,38.15
2022-11-13T19:21:55.134Z,34.33
2022-11-13T19:24:50.436Z,38.45
2022-11-13T19:27:37.133Z,42.05
2022-11-13T19:30:23.506Z,53.75
2022-11-13T19:33:10.525Z,51.30
2022-11-13T19:35:56.836Z,49.22
2022-11-13T19:38:44.057Z,58.63
2022-11-13T19:41:30.989Z,60.17
2022-11-13T19:44:17.709Z,86.20
2022-11-13T19:47:04.186Z,72.90
2022-11-13T19:49:50.869Z,60.03
2022-11-13T19:52:36.671Z,54.40
2022-11-13T19:55:23.402Z,63.97
2022-11-13T19:58:10.208Z,53.92
2022-11-13T20:00:57.223Z,51.22
2022-11-13T20:03:43.827Z,50.92
2022-11-13T20:06:32.974Z,47.28
2022-11-13T20:09:19.493Z,44.25
2022-11-13T20:12:08.992Z,39.63
2022-11-13T20:14:56.762Z,39.45
2022-11-13T20:17:43.491Z,45.22
2022-11-13T20:20:29.892Z,47.40
2022-11-13T20:23:15.835Z,52.92
2022-11-13T20:26:04.966Z,52.20
2022-11-13T20:28:51.087Z,50.47
2022-11-13T20:31:37.320Z,56.85
2022-11-13T20:34:24.010Z,55.78
2022-11-13T20:37:10.408Z,42.78
2022-11-13T20:39:57.201Z,44.05
2022-11-13T20:42:43.194Z,42.83
2022-11-13T20:45:29.525Z,41.85
2022-11-13T20:48:16.129Z,53.30
2022-11-13T20:51:11.154Z,53.58
2022-11-13T20:53:57.603Z,55.30
2022-11-13T20:56:44.922Z,54.88
2022-11-13T20:59:31.374Z,52.05
2022-11-13T21:02:18.142Z,51.22
2022-11-13T21:05:04.640Z,47.85
2022-11-13T21:07:50.283Z,48.30
2022-11-13T21:10:36.260Z,47.08
2022-11-13T21:13:22.402Z,46.72
2022-11-13T21:16:09.537Z,48.13
2022-11-13T21:18:59.618Z,44.22
2022-11-13T21:21:45.498Z,46.63
2022-11-13T21:24:31.988Z,46.85
2022-11-13T21:27:17.802Z,45.92
2022-11-13T21:30:03.733Z,45.05
2022-11-13T21:32:49.576Z,40.50
2022-11-13T21:35:35.286Z,40.90
2022-11-13T21:38:21.315Z,41.50
2022-11-13T21:41:26.859Z,44.40
2022-11-13T21:44:13.302Z,39.30
2022-11-13T21:46:59.958Z,37.92
2022-11-13T21:49:45.699Z,39.47
2022-11-13T21:52:31.410Z,35.75
2022-11-13T21:55:17.290Z,37.05
2022-11-13T21:58:03.029Z,39.35
2022-11-13T22:00:48.695Z,33.08
2022-11-13T22:03:34.504Z,33.05
2022-11-13T22:06:20.624Z,37.00
2022-11-13T22:09:13.590Z,35.20
2022-11-13T22:11:59.622Z,35.95
2022-11-13T22:14:45.264Z,31.83
2022-11-13T22:17:30.934Z,31.90
2022-11-13T22:20:16.926Z,36.88
2022-11-13T22:23:05.607Z,35.97
2022-11-13T22:25:57.067Z,28.40
2022-11-13T22:28:45.074Z,28.60
2022-11-13T22:31:31.828Z,25.88
2022-11-13T22:34:18.254Z,30.05
2022-11-13T22:37:04.279Z,25.17
2022-11-13T22:39:49.962Z,25.90
2022-11-13T22:42:35.521Z,25.30
2022-11-13T22:45:24.021Z,25.27
2022-11-13T22:48:11.258Z,22.95
2022-11-13T22:51:02.880Z,22.33
2022-11-13T22:53:56.171Z,21.27
2022-11-13T22:56:42.386Z,22.10
2022-11-13T22:59:28.414Z,21.23
2022-11-13T23:02:14.344Z,22.77
2022-11-13T23:05:00.207Z,23.40
2022-11-13T23:07:46.093Z,23.55
2022-11-13T23:10:31.702Z,19.55
2022-11-13T23:13:17.473Z,19.77
2022-11-13T23:16:03.620Z,22.25
2022-11-13T23:18:51.267Z,24.27
2022-11-13T23:21:37.287Z,26.58
2022-11-13T23:24:24.365Z,21.55
2022-11-13T23:27:10.237Z,20.52
2022-11-13T23:29:56.021Z,21.10
2022-11-13T23:32:41.571Z,22.65
2022-11-13T23:35:27.738Z,23.02
2022-11-13T23:38:13.967Z,20.17
2022-11-13T23:41:00.653Z,21.52
2022-11-13T23:49:37.973Z,19.10
2022-11-13T23:52:23.851Z,19.33
2022-11-13T23:55:10.642Z,23.65
2022-11-13T23:57:58.189Z,27.62
